sensor_id;sensor_type;location;lat;lon;timestamp;P1;durP1;ratioP1;P2;durP2;ratioP2
86142;SDS011;76799;50.146;22.704;2024-02-23T00:02:23;3.60;;;2.92;;
86142;SDS011;76799;50.146;22.704;2024-02-23T00:04:49;3.67;;;2.67;;
86142;SDS011;76799;50.146;22.704;2024-02-23T00:07:15;4.35;;;3.58;;
86142;SDS011;76799;50.146;22.704;2024-02-23T00:09:40;5.43;;;2.90;;
86142;SDS011;76799;50.146;22.704;2024-02-23T00:12:06;4.95;;;3.10;;
86142;SDS011;76799;50.146;22.704;2024-02-23T00:14:33;5.38;;;2.85;;
86142;SDS011;76799;50.146;22.704;2024-02-23T00:17:01;3.75;;;2.92;;
86142;SDS011;76799;50.146;22.704;2024-02-23T00:19:27;3.75;;;2.72;;
86142;SDS011;76799;50.146;22.704;2024-02-23T00:21:52;4.53;;;3.00;;
86142;SDS011;76799;50.146;22.704;2024-02-23T00:24:18;4.53;;;2.88;;
86142;SDS011;76799;50.146;22.704;2024-02-23T00:26:45;3.95;;;2.78;;
86142;SDS011;76799;50.146;22.704;2024-02-23T00:29:11;5.50;;;3.03;;
86142;SDS011;76799;50.146;22.704;2024-02-23T00:31:39;4.57;;;2.78;;
86142;SDS011;76799;50.146;22.704;2024-02-23T00:34:06;4.43;;;3.17;;
86142;SDS011;76799;50.146;22.704;2024-02-23T00:36:35;3.63;;;2.80;;
86142;SDS011;76799;50.146;22.704;2024-02-23T00:39:07;4.32;;;2.90;;
86142;SDS011;76799;50.146;22.704;2024-02-23T00:41:36;3.00;;;2.70;;
86142;SDS011;76799;50.146;22.704;2024-02-23T00:44:04;3.50;;;2.92;;
86142;SDS011;76799;50.146;22.704;2024-02-23T00:46:30;3.55;;;2.80;;
86142;SDS011;76799;50.146;22.704;2024-02-23T00:48:56;3.00;;;2.70;;
86142;SDS011;76799;50.146;22.704;2024-02-23T00:51:21;3.72;;;2.58;;
86142;SDS011;76799;50.146;22.704;2024-02-23T00:53:46;6.47;;;2.80;;
86142;SDS011;76799;50.146;22.704;2024-02-23T00:56:13;3.42;;;2.88;;
86142;SDS011;76799;50.146;22.704;2024-02-23T00:58:38;3.97;;;2.78;;
86142;SDS011;76799;50.146;22.704;2024-02-23T01:01:04;4.93;;;2.80;;
86142;SDS011;76799;50.146;22.704;2024-02-23T01:03:29;3.90;;;2.78;;
86142;SDS011;76799;50.146;22.704;2024-02-23T01:05:55;8.10;;;2.95;;
86142;SDS011;76799;50.146;22.704;2024-02-23T01:08:20;3.13;;;2.45;;
86142;SDS011;76799;50.146;22.704;2024-02-23T01:10:46;6.35;;;2.90;;
86142;SDS011;76799;50.146;22.704;2024-02-23T01:13:11;3.10;;;2.75;;
86142;SDS011;76799;50.146;22.704;2024-02-23T01:15:37;5.90;;;3.05;;
86142;SDS011;76799;50.146;22.704;2024-02-23T01:18:03;3.33;;;2.78;;
86142;SDS011;76799;50.146;22.704;2024-02-23T01:20:28;5.75;;;3.17;;
86142;SDS011;76799;50.146;22.704;2024-02-23T01:22:54;4.07;;;2.70;;
86142;SDS011;76799;50.146;22.704;2024-02-23T01:25:19;3.42;;;2.88;;
86142;SDS011;76799;50.146;22.704;2024-02-23T01:27:44;3.92;;;2.38;;
86142;SDS011;76799;50.146;22.704;2024-02-23T01:30:10;4.88;;;3.40;;
86142;SDS011;76799;50.146;22.704;2024-02-23T01:32:36;4.28;;;2.78;;
86142;SDS011;76799;50.146;22.704;2024-02-23T01:35:03;3.30;;;3.00;;
86142;SDS011;76799;50.146;22.704;2024-02-23T01:37:30;4.25;;;3.10;;
86142;SDS011;76799;50.146;22.704;2024-02-23T01:39:55;5.55;;;3.30;;
86142;SDS011;76799;50.146;22.704;2024-02-23T01:42:21;3.67;;;2.92;;
86142;SDS011;76799;50.146;22.704;2024-02-23T01:44:46;4.68;;;3.30;;
86142;SDS011;76799;50.146;22.704;2024-02-23T01:47:12;5.53;;;3.00;;
86142;SDS011;76799;50.146;22.704;2024-02-23T01:49:37;3.53;;;3.17;;
86142;SDS011;76799;50.146;22.704;2024-02-23T01:52:03;4.10;;;3.10;;
86142;SDS011;76799;50.146;22.704;2024-02-23T01:54:29;4.45;;;3.03;;
86142;SDS011;76799;50.146;22.704;2024-02-23T01:56:56;6.47;;;2.90;;
86142;SDS011;76799;50.146;22.704;2024-02-23T01:59:23;4.72;;;3.15;;
86142;SDS011;76799;50.146;22.704;2024-02-23T02:01:50;6.00;;;3.60;;
86142;SDS011;76799;50.146;22.704;2024-02-23T02:04:16;4.57;;;3.33;;
86142;SDS011;76799;50.146;22.704;2024-02-23T02:06:41;5.97;;;3.38;;
86142;SDS011;76799;50.146;22.704;2024-02-23T02:09:07;5.20;;;3.65;;
86142;SDS011;76799;50.146;22.704;2024-02-23T02:11:32;5.32;;;3.22;;
86142;SDS011;76799;50.146;22.704;2024-02-23T02:13:58;3.85;;;2.88;;
86142;SDS011;76799;50.146;22.704;2024-02-23T02:16:23;3.75;;;3.30;;
86142;SDS011;76799;50.146;22.704;2024-02-23T02:18:48;4.55;;;3.22;;
86142;SDS011;76799;50.146;22.704;2024-02-23T02:21:14;4.95;;;3.88;;
86142;SDS011;76799;50.146;22.704;2024-02-23T02:23:39;4.38;;;3.35;;
86142;SDS011;76799;50.146;22.704;2024-02-23T02:26:05;3.65;;;2.92;;
86142;SDS011;76799;50.146;22.704;2024-02-23T02:28:30;5.22;;;3.45;;
86142;SDS011;76799;50.146;22.704;2024-02-23T02:30:56;4.55;;;2.78;;
86142;SDS011;76799;50.146;22.704;2024-02-23T02:33:21;5.28;;;3.20;;
86142;SDS011;76799;50.146;22.704;2024-02-23T02:35:47;4.30;;;3.08;;
86142;SDS011;76799;50.146;22.704;2024-02-23T02:38:14;4.72;;;3.08;;
86142;SDS011;76799;50.146;22.704;2024-02-23T02:40:40;5.30;;;3.08;;
86142;SDS011;76799;50.146;22.704;2024-02-23T02:43:06;5.13;;;3.15;;
86142;SDS011;76799;50.146;22.704;2024-02-23T02:45:31;5.03;;;3.05;;
86142;SDS011;76799;50.146;22.704;2024-02-23T02:47:57;5.90;;;3.03;;
86142;SDS011;76799;50.146;22.704;2024-02-23T02:50:24;6.95;;;3.67;;
86142;SDS011;76799;50.146;22.704;2024-02-23T02:52:50;4.47;;;3.13;;
86142;SDS011;76799;50.146;22.704;2024-02-23T02:55:15;3.55;;;2.65;;
86142;SDS011;76799;50.146;22.704;2024-02-23T02:57:41;3.22;;;2.55;;
86142;SDS011;76799;50.146;22.704;2024-02-23T03:00:09;4.57;;;3.13;;
86142;SDS011;76799;50.146;22.704;2024-02-23T03:02:35;2.85;;;2.58;;
86142;SDS011;76799;50.146;22.704;2024-02-23T03:05:01;4.25;;;2.35;;
86142;SDS011;76799;50.146;22.704;2024-02-23T03:07:26;4.85;;;2.95;;
86142;SDS011;76799;50.146;22.704;2024-02-23T03:09:51;6.15;;;3.13;;
86142;SDS011;76799;50.146;22.704;2024-02-23T03:12:17;5.07;;;3.03;;
86142;SDS011;76799;50.146;22.704;2024-02-23T03:14:43;5.32;;;3.30;;
86142;SDS011;76799;50.146;22.704;2024-02-23T03:17:09;5.18;;;2.75;;
86142;SDS011;76799;50.146;22.704;2024-02-23T03:19:35;3.80;;;2.33;;
86142;SDS011;76799;50.146;22.704;2024-02-23T03:22:01;5.65;;;3.38;;
86142;SDS011;76799;50.146;22.704;2024-02-23T03:24:26;4.75;;;2.80;;
86142;SDS011;76799;50.146;22.704;2024-02-23T03:26:52;3.85;;;2.22;;
86142;SDS011;76799;50.146;22.704;2024-02-23T03:29:17;3.83;;;2.60;;
86142;SDS011;76799;50.146;22.704;2024-02-23T03:31:43;5.72;;;3.22;;
86142;SDS011;76799;50.146;22.704;2024-02-23T03:34:08;3.55;;;2.50;;
86142;SDS011;76799;50.146;22.704;2024-02-23T03:36:33;4.03;;;2.88;;
86142;SDS011;76799;50.146;22.704;2024-02-23T03:39:00;2.95;;;2.20;;
86142;SDS011;76799;50.146;22.704;2024-02-23T03:41:26;4.10;;;2.42;;
86142;SDS011;76799;50.146;22.704;2024-02-23T03:43:51;3.50;;;2.90;;
86142;SDS011;76799;50.146;22.704;2024-02-23T03:46:16;4.53;;;2.78;;
86142;SDS011;76799;50.146;22.704;2024-02-23T03:48:42;4.30;;;2.60;;
86142;SDS011;76799;50.146;22.704;2024-02-23T03:51:09;6.05;;;3.00;;
86142;SDS011;76799;50.146;22.704;2024-02-23T03:53:35;3.67;;;2.70;;
86142;SDS011;76799;50.146;22.704;2024-02-23T03:56:00;3.47;;;2.45;;
86142;SDS011;76799;50.146;22.704;2024-02-23T03:58:25;4.88;;;2.92;;
86142;SDS011;76799;50.146;22.704;2024-02-23T04:00:51;3.13;;;2.45;;
86142;SDS011;76799;50.146;22.704;2024-02-23T04:03:16;4.38;;;2.17;;
86142;SDS011;76799;50.146;22.704;2024-02-23T04:05:42;3.53;;;2.50;;
86142;SDS011;76799;50.146;22.704;2024-02-23T04:08:07;5.43;;;2.90;;
86142;SDS011;76799;50.146;22.704;2024-02-23T04:10:33;2.78;;;2.28;;
86142;SDS011;76799;50.146;22.704;2024-02-23T04:12:58;4.43;;;2.72;;
86142;SDS011;76799;50.146;22.704;2024-02-23T04:15:24;5.05;;;2.83;;
86142;SDS011;76799;50.146;22.704;2024-02-23T04:17:50;3.58;;;2.40;;
86142;SDS011;76799;50.146;22.704;2024-02-23T04:20:15;3.85;;;2.33;;
86142;SDS011;76799;50.146;22.704;2024-02-23T04:22:40;6.45;;;2.55;;
86142;SDS011;76799;50.146;22.704;2024-02-23T04:25:06;3.72;;;2.30;;
86142;SDS011;76799;50.146;22.704;2024-02-23T04:27:31;3.08;;;2.10;;
86142;SDS011;76799;50.146;22.704;2024-02-23T04:29:57;3.38;;;2.28;;
86142;SDS011;76799;50.146;22.704;2024-02-23T04:32:22;3.22;;;1.90;;
86142;SDS011;76799;50.146;22.704;2024-02-23T04:34:48;2.70;;;2.28;;
86142;SDS011;76799;50.146;22.704;2024-02-23T04:37:14;2.72;;;1.88;;
86142;SDS011;76799;50.146;22.704;2024-02-23T04:39:39;2.83;;;2.22;;
86142;SDS011;76799;50.146;22.704;2024-02-23T04:42:06;3.72;;;2.13;;
86142;SDS011;76799;50.146;22.704;2024-02-23T04:44:33;4.18;;;2.42;;
86142;SDS011;76799;50.146;22.704;2024-02-23T04:46:59;3.80;;;2.97;;
86142;SDS011;76799;50.146;22.704;2024-02-23T04:49:25;2.45;;;2.13;;
86142;SDS011;76799;50.146;22.704;2024-02-23T04:51:50;3.50;;;2.13;;
86142;SDS011;76799;50.146;22.704;2024-02-23T04:54:16;3.90;;;2.20;;
86142;SDS011;76799;50.146;22.704;2024-02-23T04:56:41;3.47;;;2.10;;
86142;SDS011;76799;50.146;22.704;2024-02-23T04:59:06;4.00;;;2.35;;
86142;SDS011;76799;50.146;22.704;2024-02-23T05:01:35;4.43;;;2.47;;
86142;SDS011;76799;50.146;22.704;2024-02-23T05:04:02;3.53;;;2.17;;
86142;SDS011;76799;50.146;22.704;2024-02-23T05:06:28;3.22;;;2.60;;
86142;SDS011;76799;50.146;22.704;2024-02-23T05:08:54;5.43;;;2.00;;
86142;SDS011;76799;50.146;22.704;2024-02-23T05:11:19;2.28;;;1.92;;
86142;SDS011;76799;50.146;22.704;2024-02-23T05:13:45;2.05;;;1.83;;
86142;SDS011;76799;50.146;22.704;2024-02-23T05:16:10;4.60;;;2.63;;
86142;SDS011;76799;50.146;22.704;2024-02-23T05:18:38;3.65;;;2.58;;
86142;SDS011;76799;50.146;22.704;2024-02-23T05:21:03;2.80;;;1.90;;
86142;SDS011;76799;50.146;22.704;2024-02-23T05:23:30;3.35;;;2.13;;
86142;SDS011;76799;50.146;22.704;2024-02-23T05:25:55;2.92;;;2.00;;
86142;SDS011;76799;50.146;22.704;2024-02-23T05:28:20;2.38;;;1.70;;
86142;SDS011;76799;50.146;22.704;2024-02-23T05:30:46;3.10;;;1.95;;
86142;SDS011;76799;50.146;22.704;2024-02-23T05:33:11;2.75;;;2.08;;
86142;SDS011;76799;50.146;22.704;2024-02-23T05:35:37;2.50;;;2.03;;
86142;SDS011;76799;50.146;22.704;2024-02-23T05:38:02;2.95;;;1.90;;
86142;SDS011;76799;50.146;22.704;2024-02-23T05:40:27;4.72;;;2.15;;
86142;SDS011;76799;50.146;22.704;2024-02-23T05:42:53;2.67;;;2.20;;
86142;SDS011;76799;50.146;22.704;2024-02-23T05:45:19;3.67;;;2.33;;
86142;SDS011;76799;50.146;22.704;2024-02-23T05:47:45;2.78;;;2.15;;
86142;SDS011;76799;50.146;22.704;2024-02-23T05:50:10;3.60;;;2.25;;
86142;SDS011;76799;50.146;22.704;2024-02-23T05:52:36;4.60;;;2.17;;
86142;SDS011;76799;50.146;22.704;2024-02-23T05:55:02;2.58;;;1.98;;
86142;SDS011;76799;50.146;22.704;2024-02-23T05:57:31;2.88;;;2.63;;
86142;SDS011;76799;50.146;22.704;2024-02-23T05:59:57;3.08;;;2.40;;
86142;SDS011;76799;50.146;22.704;2024-02-23T06:02:22;4.28;;;2.58;;
86142;SDS011;76799;50.146;22.704;2024-02-23T06:04:48;3.10;;;2.03;;
86142;SDS011;76799;50.146;22.704;2024-02-23T06:07:13;2.33;;;2.05;;
86142;SDS011;76799;50.146;22.704;2024-02-23T06:09:42;4.03;;;2.17;;
86142;SDS011;76799;50.146;22.704;2024-02-23T06:12:08;3.17;;;2.28;;
86142;SDS011;76799;50.146;22.704;2024-02-23T06:14:34;4.53;;;2.28;;
86142;SDS011;76799;50.146;22.704;2024-02-23T06:16:59;3.30;;;2.30;;
86142;SDS011;76799;50.146;22.704;2024-02-23T06:19:25;3.50;;;2.20;;
86142;SDS011;76799;50.146;22.704;2024-02-23T06:21:50;3.78;;;2.60;;
86142;SDS011;76799;50.146;22.704;2024-02-23T06:24:16;3.15;;;2.28;;
86142;SDS011;76799;50.146;22.704;2024-02-23T06:26:42;4.30;;;2.33;;
86142;SDS011;76799;50.146;22.704;2024-02-23T06:29:08;3.85;;;2.65;;
86142;SDS011;76799;50.146;22.704;2024-02-23T06:31:37;4.07;;;2.40;;
86142;SDS011;76799;50.146;22.704;2024-02-23T06:34:04;3.67;;;2.55;;
86142;SDS011;76799;50.146;22.704;2024-02-23T06:36:29;3.15;;;2.38;;
86142;SDS011;76799;50.146;22.704;2024-02-23T06:38:55;3.53;;;2.60;;
86142;SDS011;76799;50.146;22.704;2024-02-23T06:41:20;2.55;;;2.22;;
86142;SDS011;76799;50.146;22.704;2024-02-23T06:43:46;3.30;;;2.38;;
86142;SDS011;76799;50.146;22.704;2024-02-23T06:46:11;3.35;;;2.28;;
86142;SDS011;76799;50.146;22.704;2024-02-23T06:48:37;3.85;;;2.33;;
86142;SDS011;76799;50.146;22.704;2024-02-23T06:51:04;2.58;;;2.33;;
86142;SDS011;76799;50.146;22.704;2024-02-23T06:53:30;3.47;;;2.40;;
86142;SDS011;76799;50.146;22.704;2024-02-23T06:55:56;4.57;;;2.40;;
86142;SDS011;76799;50.146;22.704;2024-02-23T06:58:21;3.45;;;2.35;;
86142;SDS011;76799;50.146;22.704;2024-02-23T07:00:47;3.47;;;2.50;;
86142;SDS011;76799;50.146;22.704;2024-02-23T07:03:12;3.40;;;2.30;;
86142;SDS011;76799;50.146;22.704;2024-02-23T07:05:39;3.75;;;2.28;;
86142;SDS011;76799;50.146;22.704;2024-02-23T07:08:07;3.75;;;2.13;;
86142;SDS011;76799;50.146;22.704;2024-02-23T07:10:32;2.88;;;2.28;;
86142;SDS011;76799;50.146;22.704;2024-02-23T07:12:58;5.05;;;2.35;;
86142;SDS011;76799;50.146;22.704;2024-02-23T07:15:23;3.22;;;2.30;;
86142;SDS011;76799;50.146;22.704;2024-02-23T07:17:49;3.20;;;2.75;;
86142;SDS011;76799;50.146;22.704;2024-02-23T07:20:15;3.17;;;2.30;;
86142;SDS011;76799;50.146;22.704;2024-02-23T07:22:43;3.72;;;2.40;;
86142;SDS011;76799;50.146;22.704;2024-02-23T07:25:11;4.35;;;2.53;;
86142;SDS011;76799;50.146;22.704;2024-02-23T07:27:41;4.50;;;2.35;;
86142;SDS011;76799;50.146;22.704;2024-02-23T07:30:06;3.67;;;2.38;;
86142;SDS011;76799;50.146;22.704;2024-02-23T07:32:32;5.43;;;2.78;;
86142;SDS011;76799;50.146;22.704;2024-02-23T07:34:58;6.63;;;2.50;;
86142;SDS011;76799;50.146;22.704;2024-02-23T07:37:25;3.92;;;3.17;;
86142;SDS011;76799;50.146;22.704;2024-02-23T07:39:51;6.13;;;2.78;;
86142;SDS011;76799;50.146;22.704;2024-02-23T07:42:16;3.28;;;2.60;;
86142;SDS011;76799;50.146;22.704;2024-02-23T07:44:43;3.25;;;2.47;;
86142;SDS011;76799;50.146;22.704;2024-02-23T07:47:09;3.78;;;2.65;;
86142;SDS011;76799;50.146;22.704;2024-02-23T07:49:35;3.45;;;2.33;;
86142;SDS011;76799;50.146;22.704;2024-02-23T07:52:00;3.22;;;2.55;;
86142;SDS011;76799;50.146;22.704;2024-02-23T07:54:25;3.03;;;2.42;;
86142;SDS011;76799;50.146;22.704;2024-02-23T07:56:51;3.20;;;2.17;;
86142;SDS011;76799;50.146;22.704;2024-02-23T07:59:16;3.13;;;2.42;;
86142;SDS011;76799;50.146;22.704;2024-02-23T08:01:41;4.30;;;2.50;;
86142;SDS011;76799;50.146;22.704;2024-02-23T08:04:07;2.65;;;2.38;;
86142;SDS011;76799;50.146;22.704;2024-02-23T08:06:32;3.95;;;2.15;;
86142;SDS011;76799;50.146;22.704;2024-02-23T08:08:58;2.45;;;2.20;;
86142;SDS011;76799;50.146;22.704;2024-02-23T08:11:23;2.35;;;2.03;;
86142;SDS011;76799;50.146;22.704;2024-02-23T08:13:48;3.47;;;2.25;;
86142;SDS011;76799;50.146;22.704;2024-02-23T08:16:15;3.28;;;2.25;;
86142;SDS011;76799;50.146;22.704;2024-02-23T08:18:42;3.63;;;2.40;;
86142;SDS011;76799;50.146;22.704;2024-02-23T08:21:07;2.55;;;2.13;;
86142;SDS011;76799;50.146;22.704;2024-02-23T08:23:34;3.08;;;2.53;;
86142;SDS011;76799;50.146;22.704;2024-02-23T08:25:59;3.50;;;2.38;;
86142;SDS011;76799;50.146;22.704;2024-02-23T08:28:25;3.10;;;2.75;;
86142;SDS011;76799;50.146;22.704;2024-02-23T08:30:51;3.78;;;2.35;;
86142;SDS011;76799;50.146;22.704;2024-02-23T08:33:17;3.70;;;2.50;;
86142;SDS011;76799;50.146;22.704;2024-02-23T08:35:42;2.65;;;2.20;;
86142;SDS011;76799;50.146;22.704;2024-02-23T08:38:08;2.88;;;2.20;;
86142;SDS011;76799;50.146;22.704;2024-02-23T08:40:34;3.92;;;2.47;;
86142;SDS011;76799;50.146;22.704;2024-02-23T08:42:59;3.60;;;2.80;;
86142;SDS011;76799;50.146;22.704;2024-02-23T08:45:25;3.13;;;2.58;;
86142;SDS011;76799;50.146;22.704;2024-02-23T08:47:50;3.28;;;2.53;;
86142;SDS011;76799;50.146;22.704;2024-02-23T08:50:16;2.95;;;2.35;;
86142;SDS011;76799;50.146;22.704;2024-02-23T08:52:41;4.38;;;2.70;;
86142;SDS011;76799;50.146;22.704;2024-02-23T08:55:06;4.18;;;2.67;;
86142;SDS011;76799;50.146;22.704;2024-02-23T08:57:32;3.45;;;2.70;;
86142;SDS011;76799;50.146;22.704;2024-02-23T08:59:58;8.30;;;3.45;;
86142;SDS011;76799;50.146;22.704;2024-02-23T09:02:26;4.22;;;3.03;;
86142;SDS011;76799;50.146;22.704;2024-02-23T09:04:52;4.30;;;3.00;;
86142;SDS011;76799;50.146;22.704;2024-02-23T09:07:17;8.95;;;3.28;;
86142;SDS011;76799;50.146;22.704;2024-02-23T09:09:46;4.40;;;3.25;;
86142;SDS011;76799;50.146;22.704;2024-02-23T09:12:12;4.32;;;3.08;;
86142;SDS011;76799;50.146;22.704;2024-02-23T09:14:39;4.18;;;2.88;;
86142;SDS011;76799;50.146;22.704;2024-02-23T09:17:06;5.00;;;3.00;;
86142;SDS011;76799;50.146;22.704;2024-02-23T09:19:33;3.75;;;2.92;;
86142;SDS011;76799;50.146;22.704;2024-02-23T09:21:58;3.30;;;2.58;;
86142;SDS011;76799;50.146;22.704;2024-02-23T09:24:25;4.60;;;3.17;;
86142;SDS011;76799;50.146;22.704;2024-02-23T09:26:50;2.92;;;2.63;;
86142;SDS011;76799;50.146;22.704;2024-02-23T09:29:15;3.85;;;2.78;;
86142;SDS011;76799;50.146;22.704;2024-02-23T09:31:41;3.88;;;2.60;;
86142;SDS011;76799;50.146;22.704;2024-02-23T09:34:06;3.72;;;2.90;;
86142;SDS011;76799;50.146;22.704;2024-02-23T09:36:32;5.18;;;2.50;;
86142;SDS011;76799;50.146;22.704;2024-02-23T09:38:57;4.43;;;3.10;;
86142;SDS011;76799;50.146;22.704;2024-02-23T09:41:23;4.57;;;2.92;;
86142;SDS011;76799;50.146;22.704;2024-02-23T09:43:49;5.30;;;2.60;;
86142;SDS011;76799;50.146;22.704;2024-02-23T09:46:16;3.17;;;2.33;;
86142;SDS011;76799;50.146;22.704;2024-02-23T09:48:43;2.85;;;2.40;;
86142;SDS011;76799;50.146;22.704;2024-02-23T09:51:12;3.58;;;2.67;;
86142;SDS011;76799;50.146;22.704;2024-02-23T09:53:39;2.65;;;2.33;;
86142;SDS011;76799;50.146;22.704;2024-02-23T09:56:07;3.67;;;2.92;;
86142;SDS011;76799;50.146;22.704;2024-02-23T09:58:34;3.22;;;2.55;;
86142;SDS011;76799;50.146;22.704;2024-02-23T10:01:02;3.55;;;2.58;;
86142;SDS011;76799;50.146;22.704;2024-02-23T10:03:28;4.75;;;2.70;;
86142;SDS011;76799;50.146;22.704;2024-02-23T10:05:58;2.97;;;2.40;;
86142;SDS011;76799;50.146;22.704;2024-02-23T10:08:27;2.63;;;2.28;;
86142;SDS011;76799;50.146;22.704;2024-02-23T10:10:54;3.28;;;2.55;;
86142;SDS011;76799;50.146;22.704;2024-02-23T10:13:20;2.83;;;2.17;;
86142;SDS011;76799;50.146;22.704;2024-02-23T10:15:47;3.55;;;2.58;;
86142;SDS011;76799;50.146;22.704;2024-02-23T10:18:12;3.03;;;2.53;;
86142;SDS011;76799;50.146;22.704;2024-02-23T10:20:38;5.53;;;2.35;;
86142;SDS011;76799;50.146;22.704;2024-02-23T10:23:04;3.47;;;2.28;;
86142;SDS011;76799;50.146;22.704;2024-02-23T10:25:32;4.97;;;2.45;;
86142;SDS011;76799;50.146;22.704;2024-02-23T10:27:58;2.75;;;2.15;;
86142;SDS011;76799;50.146;22.704;2024-02-23T10:30:26;2.47;;;2.10;;
86142;SDS011;76799;50.146;22.704;2024-02-23T10:32:52;6.40;;;2.05;;
86142;SDS011;76799;50.146;22.704;2024-02-23T10:35:21;2.50;;;2.17;;
86142;SDS011;76799;50.146;22.704;2024-02-23T10:37:48;2.63;;;1.88;;
86142;SDS011;76799;50.146;22.704;2024-02-23T10:40:18;3.33;;;2.20;;
86142;SDS011;76799;50.146;22.704;2024-02-23T10:42:45;3.63;;;1.95;;
86142;SDS011;76799;50.146;22.704;2024-02-23T10:45:20;3.85;;;1.45;;
86142;SDS011;76799;50.146;22.704;2024-02-23T10:47:52;1.80;;;1.63;;
86142;SDS011;76799;50.146;22.704;2024-02-23T10:50:20;2.70;;;1.70;;
86142;SDS011;76799;50.146;22.704;2024-02-23T10:52:47;2.90;;;1.70;;
86142;SDS011;76799;50.146;22.704;2024-02-23T10:55:14;2.45;;;1.70;;
86142;SDS011;76799;50.146;22.704;2024-02-23T10:57:39;2.13;;;1.60;;
86142;SDS011;76799;50.146;22.704;2024-02-23T11:00:05;1.60;;;1.50;;
86142;SDS011;76799;50.146;22.704;2024-02-23T11:02:36;2.53;;;1.90;;
86142;SDS011;76799;50.146;22.704;2024-02-23T11:05:05;1.75;;;1.63;;
86142;SDS011;76799;50.146;22.704;2024-02-23T11:07:37;1.98;;;1.77;;
86142;SDS011;76799;50.146;22.704;2024-02-23T11:10:04;2.08;;;1.77;;
86142;SDS011;76799;50.146;22.704;2024-02-23T11:12:29;2.35;;;1.75;;
86142;SDS011;76799;50.146;22.704;2024-02-23T11:14:59;2.75;;;1.83;;
86142;SDS011;76799;50.146;22.704;2024-02-23T11:17:31;2.60;;;2.00;;
86142;SDS011;76799;50.146;22.704;2024-02-23T11:20:02;2.13;;;1.90;;
86142;SDS011;76799;50.146;22.704;2024-02-23T11:22:35;2.95;;;1.85;;
86142;SDS011;76799;50.146;22.704;2024-02-23T11:25:04;3.33;;;2.10;;
86142;SDS011;76799;50.146;22.704;2024-02-23T11:27:31;3.45;;;2.55;;
86142;SDS011;76799;50.146;22.704;2024-02-23T11:29:58;3.33;;;2.28;;
86142;SDS011;76799;50.146;22.704;2024-02-23T11:32:34;3.08;;;2.20;;
86142;SDS011;76799;50.146;22.704;2024-02-23T11:35:03;2.83;;;2.10;;
86142;SDS011;76799;50.146;22.704;2024-02-23T11:37:30;2.13;;;1.80;;
86142;SDS011;76799;50.146;22.704;2024-02-23T11:39:56;2.28;;;1.83;;
86142;SDS011;76799;50.146;22.704;2024-02-23T11:42:23;3.13;;;2.28;;
86142;SDS011;76799;50.146;22.704;2024-02-23T11:44:49;4.32;;;2.30;;
86142;SDS011;76799;50.146;22.704;2024-02-23T11:47:15;2.30;;;2.00;;
86142;SDS011;76799;50.146;22.704;2024-02-23T11:49:42;2.28;;;1.80;;
86142;SDS011;76799;50.146;22.704;2024-02-23T11:52:07;2.30;;;1.98;;
86142;SDS011;76799;50.146;22.704;2024-02-23T11:54:33;2.08;;;1.80;;
86142;SDS011;76799;50.146;22.704;2024-02-23T11:56:58;3.67;;;2.17;;
86142;SDS011;76799;50.146;22.704;2024-02-23T11:59:25;3.10;;;1.98;;
86142;SDS011;76799;50.146;22.704;2024-02-23T12:01:50;2.92;;;2.38;;
86142;SDS011;76799;50.146;22.704;2024-02-23T12:04:16;1.83;;;1.73;;
86142;SDS011;76799;50.146;22.704;2024-02-23T12:06:42;2.70;;;2.20;;
86142;SDS011;76799;50.146;22.704;2024-02-23T12:09:07;1.75;;;1.65;;
86142;SDS011;76799;50.146;22.704;2024-02-23T12:11:34;2.92;;;1.92;;
86142;SDS011;76799;50.146;22.704;2024-02-23T12:14:00;2.83;;;2.03;;
86142;SDS011;76799;50.146;22.704;2024-02-23T12:16:27;2.25;;;1.90;;
86142;SDS011;76799;50.146;22.704;2024-02-23T12:18:55;2.72;;;1.88;;
86142;SDS011;76799;50.146;22.704;2024-02-23T12:21:22;1.83;;;1.65;;
86142;SDS011;76799;50.146;22.704;2024-02-23T12:23:48;2.45;;;1.80;;
86142;SDS011;76799;50.146;22.704;2024-02-23T12:26:16;1.80;;;1.60;;
86142;SDS011;76799;50.146;22.704;2024-02-23T12:28:43;2.60;;;1.60;;
86142;SDS011;76799;50.146;22.704;2024-02-23T12:31:09;2.65;;;1.85;;
86142;SDS011;76799;50.146;22.704;2024-02-23T12:33:35;2.05;;;1.65;;
86142;SDS011;76799;50.146;22.704;2024-02-23T12:36:03;2.45;;;1.60;;
86142;SDS011;76799;50.146;22.704;2024-02-23T12:38:29;2.22;;;1.55;;
86142;SDS011;76799;50.146;22.704;2024-02-23T12:40:54;2.03;;;1.58;;
86142;SDS011;76799;50.146;22.704;2024-02-23T12:43:20;1.95;;;1.80;;
86142;SDS011;76799;50.146;22.704;2024-02-23T12:45:47;4.35;;;2.00;;
86142;SDS011;76799;50.146;22.704;2024-02-23T12:48:16;3.28;;;2.30;;
86142;SDS011;76799;50.146;22.704;2024-02-23T12:50:42;1.63;;;1.45;;
86142;SDS011;76799;50.146;22.704;2024-02-23T12:53:09;2.72;;;1.73;;
86142;SDS011;76799;50.146;22.704;2024-02-23T12:55:35;2.60;;;1.60;;
86142;SDS011;76799;50.146;22.704;2024-02-23T12:58:01;2.95;;;1.80;;
86142;SDS011;76799;50.146;22.704;2024-02-23T13:00:27;2.08;;;1.60;;
86142;SDS011;76799;50.146;22.704;2024-02-23T13:02:53;2.42;;;1.92;;
86142;SDS011;76799;50.146;22.704;2024-02-23T13:05:19;3.30;;;2.00;;
86142;SDS011;76799;50.146;22.704;2024-02-23T13:07:44;3.80;;;1.92;;
86142;SDS011;76799;50.146;22.704;2024-02-23T13:10:11;2.38;;;2.15;;
86142;SDS011;76799;50.146;22.704;2024-02-23T13:12:36;3.05;;;2.10;;
86142;SDS011;76799;50.146;22.704;2024-02-23T13:15:02;2.40;;;1.67;;
86142;SDS011;76799;50.146;22.704;2024-02-23T13:17:27;3.17;;;2.08;;
86142;SDS011;76799;50.146;22.704;2024-02-23T13:19:53;2.25;;;1.90;;
86142;SDS011;76799;50.146;22.704;2024-02-23T13:22:19;4.07;;;2.03;;
86142;SDS011;76799;50.146;22.704;2024-02-23T13:24:44;1.73;;;1.55;;
86142;SDS011;76799;50.146;22.704;2024-02-23T13:27:09;2.53;;;2.15;;
86142;SDS011;76799;50.146;22.704;2024-02-23T13:29:35;3.30;;;2.20;;
86142;SDS011;76799;50.146;22.704;2024-02-23T13:32:00;2.45;;;2.10;;
86142;SDS011;76799;50.146;22.704;2024-02-23T13:34:26;4.50;;;2.30;;
86142;SDS011;76799;50.146;22.704;2024-02-23T13:36:51;3.33;;;2.50;;
86142;SDS011;76799;50.146;22.704;2024-02-23T13:39:17;3.40;;;2.40;;
86142;SDS011;76799;50.146;22.704;2024-02-23T13:41:43;2.83;;;2.50;;
86142;SDS011;76799;50.146;22.704;2024-02-23T13:44:08;2.90;;;2.17;;
86142;SDS011;76799;50.146;22.704;2024-02-23T13:46:40;2.97;;;2.45;;
86142;SDS011;76799;50.146;22.704;2024-02-23T13:49:06;3.05;;;2.50;;
86142;SDS011;76799;50.146;22.704;2024-02-23T13:51:32;3.67;;;2.42;;
86142;SDS011;76799;50.146;22.704;2024-02-23T13:53:58;4.38;;;3.10;;
86142;SDS011;76799;50.146;22.704;2024-02-23T13:56:24;3.00;;;2.58;;
86142;SDS011;76799;50.146;22.704;2024-02-23T13:58:50;3.45;;;2.67;;
86142;SDS011;76799;50.146;22.704;2024-02-23T14:01:15;3.65;;;2.63;;
86142;SDS011;76799;50.146;22.704;2024-02-23T14:03:41;5.53;;;2.58;;
86142;SDS011;76799;50.146;22.704;2024-02-23T14:06:06;4.10;;;2.90;;
86142;SDS011;76799;50.146;22.704;2024-02-23T14:08:32;5.20;;;3.35;;
86142;SDS011;76799;50.146;22.704;2024-02-23T14:10:59;3.97;;;2.92;;
86142;SDS011;76799;50.146;22.704;2024-02-23T14:13:25;5.90;;;3.92;;
86142;SDS011;76799;50.146;22.704;2024-02-23T14:15:51;6.07;;;3.40;;
86142;SDS011;76799;50.146;22.704;2024-02-23T14:18:16;5.28;;;3.65;;
86142;SDS011;76799;50.146;22.704;2024-02-23T14:20:42;8.70;;;4.15;;
86142;SDS011;76799;50.146;22.704;2024-02-23T14:23:07;8.80;;;4.78;;
86142;SDS011;76799;50.146;22.704;2024-02-23T14:25:33;5.00;;;3.40;;
86142;SDS011;76799;50.146;22.704;2024-02-23T14:27:58;5.03;;;3.47;;